sensor_id;sensor_type;location;lat;lon;timestamp;P1;durP1;ratioP1;P2;durP2;ratioP2
50781;SDS011;36749;37.428;-121.972;2023-08-01T00:00:09;23.90;;;6.05;;
50781;SDS011;36749;37.428;-121.972;2023-08-01T00:02:36;19.85;;;6.75;;
50781;SDS011;36749;37.428;-121.972;2023-08-01T00:05:02;19.98;;;6.97;;
50781;SDS011;36749;37.428;-121.972;2023-08-01T00:07:29;20.88;;;6.75;;
50781;SDS011;36749;37.428;-121.972;2023-08-01T00:09:55;21.65;;;6.57;;
50781;SDS011;36749;37.428;-121.972;2023-08-01T00:12:21;18.27;;;5.80;;
50781;SDS011;36749;37.428;-121.972;2023-08-01T00:14:49;34.58;;;7.85;;
50781;SDS011;36749;37.428;-121.972;2023-08-01T00:17:15;20.75;;;7.65;;
50781;SDS011;36749;37.428;-121.972;2023-08-01T00:19:41;20.77;;;6.55;;
50781;SDS011;36749;37.428;-121.972;2023-08-01T00:22:07;17.67;;;7.88;;
50781;SDS011;36749;37.428;-121.972;2023-08-01T00:24:34;16.30;;;6.25;;
50781;SDS011;36749;37.428;-121.972;2023-08-01T00:27:01;21.00;;;7.55;;
50781;SDS011;36749;37.428;-121.972;2023-08-01T00:29:27;22.50;;;7.47;;
50781;SDS011;36749;37.428;-121.972;2023-08-01T00:31:53;24.17;;;7.25;;
50781;SDS011;36749;37.428;-121.972;2023-08-01T00:34:19;18.70;;;7.07;;
50781;SDS011;36749;37.428;-121.972;2023-08-01T00:36:46;17.52;;;7.65;;
50781;SDS011;36749;37.428;-121.972;2023-08-01T00:39:12;24.23;;;7.20;;
50781;SDS011;36749;37.428;-121.972;2023-08-01T00:41:38;19.25;;;7.38;;
50781;SDS011;36749;37.428;-121.972;2023-08-01T00:44:05;17.90;;;6.55;;
50781;SDS011;36749;37.428;-121.972;2023-08-01T00:46:32;18.77;;;7.63;;
50781;SDS011;36749;37.428;-121.972;2023-08-01T00:48:58;16.70;;;7.18;;
50781;SDS011;36749;37.428;-121.972;2023-08-01T00:51:25;17.90;;;6.35;;
50781;SDS011;36749;37.428;-121.972;2023-08-01T00:53:52;20.67;;;7.28;;
50781;SDS011;36749;37.428;-121.972;2023-08-01T00:56:19;19.65;;;7.40;;
50781;SDS011;36749;37.428;-121.972;2023-08-01T00:58:45;19.83;;;7.30;;
50781;SDS011;36749;37.428;-121.972;2023-08-01T01:01:11;23.58;;;7.45;;
50781;SDS011;36749;37.428;-121.972;2023-08-01T01:03:37;43.83;;;9.88;;
50781;SDS011;36749;37.428;-121.972;2023-08-01T01:08:48;33.03;;;8.63;;
50781;SDS011;36749;37.428;-121.972;2023-08-01T01:11:15;20.38;;;7.40;;
50781;SDS011;36749;37.428;-121.972;2023-08-01T01:13:41;22.33;;;7.35;;
50781;SDS011;36749;37.428;-121.972;2023-08-01T01:16:07;20.25;;;7.03;;
50781;SDS011;36749;37.428;-121.972;2023-08-01T01:18:33;18.00;;;6.85;;
50781;SDS011;36749;37.428;-121.972;2023-08-01T01:21:00;20.85;;;7.35;;
50781;SDS011;36749;37.428;-121.972;2023-08-01T01:23:26;20.98;;;6.90;;
50781;SDS011;36749;37.428;-121.972;2023-08-01T01:25:53;21.08;;;8.10;;
50781;SDS011;36749;37.428;-121.972;2023-08-01T01:28:20;17.25;;;7.60;;
50781;SDS011;36749;37.428;-121.972;2023-08-01T01:30:47;15.73;;;6.55;;
50781;SDS011;36749;37.428;-121.972;2023-08-01T01:33:15;20.95;;;6.70;;
50781;SDS011;36749;37.428;-121.972;2023-08-01T01:35:43;18.65;;;7.25;;
50781;SDS011;36749;37.428;-121.972;2023-08-01T01:38:09;19.58;;;7.10;;
50781;SDS011;36749;37.428;-121.972;2023-08-01T01:40:35;23.27;;;6.93;;
50781;SDS011;36749;37.428;-121.972;2023-08-01T01:43:02;18.13;;;6.82;;
50781;SDS011;36749;37.428;-121.972;2023-08-01T01:45:28;23.17;;;7.78;;
50781;SDS011;36749;37.428;-121.972;2023-08-01T01:47:56;20.23;;;7.55;;
50781;SDS011;36749;37.428;-121.972;2023-08-01T01:50:22;16.92;;;7.50;;
50781;SDS011;36749;37.428;-121.972;2023-08-01T01:52:48;19.60;;;8.38;;
50781;SDS011;36749;37.428;-121.972;2023-08-01T01:55:14;19.40;;;8.40;;
50781;SDS011;36749;37.428;-121.972;2023-08-01T01:57:44;16.23;;;8.15;;
50781;SDS011;36749;37.428;-121.972;2023-08-01T02:00:12;24.40;;;8.05;;
50781;SDS011;36749;37.428;-121.972;2023-08-01T02:02:41;23.80;;;9.15;;
50781;SDS011;36749;37.428;-121.972;2023-08-01T02:05:08;25.33;;;9.00;;
50781;SDS011;36749;37.428;-121.972;2023-08-01T02:07:34;21.50;;;8.38;;
50781;SDS011;36749;37.428;-121.972;2023-08-01T02:10:00;26.85;;;9.23;;
50781;SDS011;36749;37.428;-121.972;2023-08-01T02:12:27;25.60;;;8.70;;
50781;SDS011;36749;37.428;-121.972;2023-08-01T02:15:00;21.87;;;9.20;;
50781;SDS011;36749;37.428;-121.972;2023-08-01T02:17:26;24.85;;;8.80;;
50781;SDS011;36749;37.428;-121.972;2023-08-01T02:19:52;41.17;;;10.75;;
50781;SDS011;36749;37.428;-121.972;2023-08-01T02:22:19;22.35;;;9.40;;
50781;SDS011;36749;37.428;-121.972;2023-08-01T02:24:46;22.88;;;8.57;;
50781;SDS011;36749;37.428;-121.972;2023-08-01T02:27:13;26.98;;;9.18;;
50781;SDS011;36749;37.428;-121.972;2023-08-01T02:29:41;24.67;;;9.45;;
50781;SDS011;36749;37.428;-121.972;2023-08-01T02:32:09;27.13;;;9.95;;
50781;SDS011;36749;37.428;-121.972;2023-08-01T02:34:35;24.17;;;9.52;;
50781;SDS011;36749;37.428;-121.972;2023-08-01T02:37:01;22.48;;;8.82;;
50781;SDS011;36749;37.428;-121.972;2023-08-01T02:39:29;28.48;;;8.93;;
50781;SDS011;36749;37.428;-121.972;2023-08-01T02:41:56;23.52;;;9.20;;
50781;SDS011;36749;37.428;-121.972;2023-08-01T02:44:24;27.77;;;9.32;;
50781;SDS011;36749;37.428;-121.972;2023-08-01T02:46:50;26.20;;;10.13;;
50781;SDS011;36749;37.428;-121.972;2023-08-01T02:49:16;27.67;;;9.07;;
50781;SDS011;36749;37.428;-121.972;2023-08-01T02:51:46;22.77;;;9.48;;
50781;SDS011;36749;37.428;-121.972;2023-08-01T02:54:13;25.45;;;9.73;;
50781;SDS011;36749;37.428;-121.972;2023-08-01T02:56:40;25.75;;;9.93;;
50781;SDS011;36749;37.428;-121.972;2023-08-01T02:59:09;23.50;;;9.35;;
50781;SDS011;36749;37.428;-121.972;2023-08-01T03:01:35;28.92;;;10.45;;
50781;SDS011;36749;37.428;-121.972;2023-08-01T03:04:03;26.40;;;10.20;;
50781;SDS011;36749;37.428;-121.972;2023-08-01T03:06:30;26.60;;;10.75;;
50781;SDS011;36749;37.428;-121.972;2023-08-01T03:08:58;30.83;;;10.57;;
50781;SDS011;36749;37.428;-121.972;2023-08-01T03:11:26;27.80;;;10.45;;
50781;SDS011;36749;37.428;-121.972;2023-08-01T03:13:52;31.63;;;10.85;;
50781;SDS011;36749;37.428;-121.972;2023-08-01T03:16:18;27.02;;;10.20;;
50781;SDS011;36749;37.428;-121.972;2023-08-01T03:18:45;32.33;;;11.00;;
50781;SDS011;36749;37.428;-121.972;2023-08-01T03:21:12;33.08;;;12.93;;
50781;SDS011;36749;37.428;-121.972;2023-08-01T03:23:40;41.67;;;14.88;;
50781;SDS011;36749;37.428;-121.972;2023-08-01T03:26:09;33.30;;;11.60;;
50781;SDS011;36749;37.428;-121.972;2023-08-01T03:28:35;29.17;;;10.13;;
50781;SDS011;36749;37.428;-121.972;2023-08-01T03:31:03;31.63;;;11.45;;
50781;SDS011;36749;37.428;-121.972;2023-08-01T03:33:29;29.33;;;10.15;;
50781;SDS011;36749;37.428;-121.972;2023-08-01T03:35:56;23.70;;;10.82;;
50781;SDS011;36749;37.428;-121.972;2023-08-01T03:38:24;26.67;;;10.25;;
50781;SDS011;36749;37.428;-121.972;2023-08-01T03:40:51;29.55;;;10.18;;
50781;SDS011;36749;37.428;-121.972;2023-08-01T03:43:21;31.58;;;11.23;;
50781;SDS011;36749;37.428;-121.972;2023-08-01T03:45:49;31.17;;;10.07;;
50781;SDS011;36749;37.428;-121.972;2023-08-01T03:48:15;34.05;;;11.90;;
50781;SDS011;36749;37.428;-121.972;2023-08-01T03:50:42;24.13;;;11.50;;
50781;SDS011;36749;37.428;-121.972;2023-08-01T03:53:08;29.90;;;11.38;;
50781;SDS011;36749;37.428;-121.972;2023-08-01T03:55:34;33.17;;;12.70;;
50781;SDS011;36749;37.428;-121.972;2023-08-01T03:58:00;33.90;;;11.88;;
50781;SDS011;36749;37.428;-121.972;2023-08-01T04:00:28;29.92;;;12.25;;
50781;SDS011;36749;37.428;-121.972;2023-08-01T04:02:58;32.05;;;10.85;;
50781;SDS011;36749;37.428;-121.972;2023-08-01T04:05:25;31.33;;;10.40;;
50781;SDS011;36749;37.428;-121.972;2023-08-01T04:07:51;33.60;;;12.18;;
50781;SDS011;36749;37.428;-121.972;2023-08-01T04:10:22;34.22;;;12.82;;
50781;SDS011;36749;37.428;-121.972;2023-08-01T04:12:49;36.33;;;14.18;;
50781;SDS011;36749;37.428;-121.972;2023-08-01T04:15:15;33.33;;;13.73;;
50781;SDS011;36749;37.428;-121.972;2023-08-01T04:17:41;33.45;;;12.77;;
50781;SDS011;36749;37.428;-121.972;2023-08-01T04:20:08;26.98;;;10.45;;
50781;SDS011;36749;37.428;-121.972;2023-08-01T04:22:34;34.38;;;13.00;;
50781;SDS011;36749;37.428;-121.972;2023-08-01T04:25:01;25.90;;;11.25;;
50781;SDS011;36749;37.428;-121.972;2023-08-01T04:27:27;34.63;;;13.48;;
50781;SDS011;36749;37.428;-121.972;2023-08-01T04:29:55;38.65;;;13.63;;
50781;SDS011;36749;37.428;-121.972;2023-08-01T04:32:21;28.40;;;12.02;;
50781;SDS011;36749;37.428;-121.972;2023-08-01T04:34:47;28.85;;;11.25;;
50781;SDS011;36749;37.428;-121.972;2023-08-01T04:37:13;29.55;;;11.13;;
50781;SDS011;36749;37.428;-121.972;2023-08-01T04:39:39;25.17;;;11.07;;
50781;SDS011;36749;37.428;-121.972;2023-08-01T04:42:06;25.17;;;11.45;;
50781;SDS011;36749;37.428;-121.972;2023-08-01T04:44:32;32.80;;;12.27;;
50781;SDS011;36749;37.428;-121.972;2023-08-01T04:46:58;30.38;;;10.48;;
50781;SDS011;36749;37.428;-121.972;2023-08-01T04:49:24;28.52;;;12.07;;
50781;SDS011;36749;37.428;-121.972;2023-08-01T04:51:51;29.27;;;11.60;;
50781;SDS011;36749;37.428;-121.972;2023-08-01T04:54:17;32.28;;;12.15;;
50781;SDS011;36749;37.428;-121.972;2023-08-01T04:56:43;27.65;;;12.00;;
50781;SDS011;36749;37.428;-121.972;2023-08-01T04:59:30;26.90;;;11.10;;
50781;SDS011;36749;37.428;-121.972;2023-08-01T05:01:56;28.73;;;10.45;;
50781;SDS011;36749;37.428;-121.972;2023-08-01T05:04:22;27.33;;;12.07;;
50781;SDS011;36749;37.428;-121.972;2023-08-01T05:06:48;29.55;;;11.80;;
50781;SDS011;36749;37.428;-121.972;2023-08-01T05:09:14;30.25;;;10.48;;
50781;SDS011;36749;37.428;-121.972;2023-08-01T05:11:41;29.83;;;13.05;;
50781;SDS011;36749;37.428;-121.972;2023-08-01T05:14:07;31.40;;;12.32;;
50781;SDS011;36749;37.428;-121.972;2023-08-01T05:16:33;30.45;;;13.07;;
50781;SDS011;36749;37.428;-121.972;2023-08-01T05:18:59;29.55;;;13.38;;
50781;SDS011;36749;37.428;-121.972;2023-08-01T05:21:25;41.95;;;15.55;;
50781;SDS011;36749;37.428;-121.972;2023-08-01T05:23:52;26.52;;;10.30;;
50781;SDS011;36749;37.428;-121.972;2023-08-01T05:26:18;34.67;;;11.07;;
50781;SDS011;36749;37.428;-121.972;2023-08-01T05:28:44;30.70;;;9.88;;
50781;SDS011;36749;37.428;-121.972;2023-08-01T05:31:10;24.83;;;9.57;;
50781;SDS011;36749;37.428;-121.972;2023-08-01T05:33:36;30.80;;;11.20;;
50781;SDS011;36749;37.428;-121.972;2023-08-01T05:36:03;36.08;;;11.48;;
50781;SDS011;36749;37.428;-121.972;2023-08-01T05:38:29;29.08;;;10.75;;
50781;SDS011;36749;37.428;-121.972;2023-08-01T05:40:55;36.10;;;11.02;;
50781;SDS011;36749;37.428;-121.972;2023-08-01T05:43:21;26.48;;;10.00;;
50781;SDS011;36749;37.428;-121.972;2023-08-01T05:45:48;28.17;;;11.57;;
50781;SDS011;36749;37.428;-121.972;2023-08-01T05:48:14;28.88;;;10.25;;
50781;SDS011;36749;37.428;-121.972;2023-08-01T05:50:40;33.47;;;10.43;;
50781;SDS011;36749;37.428;-121.972;2023-08-01T05:53:06;25.77;;;9.60;;
50781;SDS011;36749;37.428;-121.972;2023-08-01T05:55:33;36.30;;;10.55;;
50781;SDS011;36749;37.428;-121.972;2023-08-01T05:57:59;25.40;;;9.57;;
50781;SDS011;36749;37.428;-121.972;2023-08-01T06:00:26;21.85;;;9.07;;
50781;SDS011;36749;37.428;-121.972;2023-08-01T06:02:52;32.28;;;11.98;;
50781;SDS011;36749;37.428;-121.972;2023-08-01T06:05:18;26.58;;;10.25;;
50781;SDS011;36749;37.428;-121.972;2023-08-01T06:07:44;30.88;;;10.73;;
50781;SDS011;36749;37.428;-121.972;2023-08-01T06:10:11;28.63;;;11.27;;
50781;SDS011;36749;37.428;-121.972;2023-08-01T06:12:37;34.78;;;12.02;;
50781;SDS011;36749;37.428;-121.972;2023-08-01T06:15:03;30.17;;;10.40;;
50781;SDS011;36749;37.428;-121.972;2023-08-01T06:17:30;32.72;;;10.70;;
50781;SDS011;36749;37.428;-121.972;2023-08-01T06:19:56;26.60;;;10.63;;
50781;SDS011;36749;37.428;-121.972;2023-08-01T06:22:22;35.25;;;10.90;;
50781;SDS011;36749;37.428;-121.972;2023-08-01T06:24:48;34.38;;;11.35;;
50781;SDS011;36749;37.428;-121.972;2023-08-01T06:27:14;28.92;;;10.65;;
50781;SDS011;36749;37.428;-121.972;2023-08-01T06:29:41;31.45;;;10.70;;
50781;SDS011;36749;37.428;-121.972;2023-08-01T06:32:07;29.63;;;9.77;;
50781;SDS011;36749;37.428;-121.972;2023-08-01T06:34:33;34.45;;;10.55;;
50781;SDS011;36749;37.428;-121.972;2023-08-01T06:36:59;27.92;;;10.73;;
50781;SDS011;36749;37.428;-121.972;2023-08-01T06:39:25;28.65;;;10.63;;
50781;SDS011;36749;37.428;-121.972;2023-08-01T06:41:52;30.80;;;11.15;;
50781;SDS011;36749;37.428;-121.972;2023-08-01T06:44:18;28.77;;;10.48;;
50781;SDS011;36749;37.428;-121.972;2023-08-01T06:46:44;30.90;;;11.00;;
50781;SDS011;36749;37.428;-121.972;2023-08-01T06:49:10;37.20;;;10.63;;
50781;SDS011;36749;37.428;-121.972;2023-08-01T06:51:36;25.83;;;10.15;;
50781;SDS011;36749;37.428;-121.972;2023-08-01T06:54:03;29.20;;;9.63;;
50781;SDS011;36749;37.428;-121.972;2023-08-01T06:56:29;26.27;;;9.30;;
50781;SDS011;36749;37.428;-121.972;2023-08-01T06:58:55;23.02;;;9.07;;
50781;SDS011;36749;37.428;-121.972;2023-08-01T07:01:21;26.88;;;10.18;;
50781;SDS011;36749;37.428;-121.972;2023-08-01T07:03:47;29.08;;;9.23;;
50781;SDS011;36749;37.428;-121.972;2023-08-01T07:06:16;31.25;;;10.77;;
50781;SDS011;36749;37.428;-121.972;2023-08-01T07:08:42;31.65;;;10.75;;
50781;SDS011;36749;37.428;-121.972;2023-08-01T07:11:08;32.15;;;9.57;;
50781;SDS011;36749;37.428;-121.972;2023-08-01T07:13:34;31.23;;;10.02;;
50781;SDS011;36749;37.428;-121.972;2023-08-01T07:16:01;31.90;;;9.60;;
50781;SDS011;36749;37.428;-121.972;2023-08-01T07:18:27;33.72;;;11.70;;
50781;SDS011;36749;37.428;-121.972;2023-08-01T07:21:03;27.52;;;10.27;;
50781;SDS011;36749;37.428;-121.972;2023-08-01T07:23:33;32.67;;;11.30;;
50781;SDS011;36749;37.428;-121.972;2023-08-01T07:26:01;36.03;;;11.35;;
50781;SDS011;36749;37.428;-121.972;2023-08-01T07:28:27;30.63;;;9.52;;
50781;SDS011;36749;37.428;-121.972;2023-08-01T07:31:03;32.78;;;9.88;;
50781;SDS011;36749;37.428;-121.972;2023-08-01T07:33:31;28.67;;;10.15;;
50781;SDS011;36749;37.428;-121.972;2023-08-01T07:35:58;25.95;;;10.55;;
50781;SDS011;36749;37.428;-121.972;2023-08-01T07:38:24;33.10;;;9.60;;
50781;SDS011;36749;37.428;-121.972;2023-08-01T07:40:52;26.55;;;10.73;;
50781;SDS011;36749;37.428;-121.972;2023-08-01T07:43:19;21.77;;;9.77;;
50781;SDS011;36749;37.428;-121.972;2023-08-01T07:45:45;30.08;;;10.52;;
50781;SDS011;36749;37.428;-121.972;2023-08-01T07:48:11;27.50;;;10.82;;
50781;SDS011;36749;37.428;-121.972;2023-08-01T07:50:38;26.17;;;9.60;;
50781;SDS011;36749;37.428;-121.972;2023-08-01T07:53:04;33.05;;;10.48;;
50781;SDS011;36749;37.428;-121.972;2023-08-01T07:55:33;29.77;;;9.50;;
50781;SDS011;36749;37.428;-121.972;2023-08-01T07:58:00;29.75;;;10.50;;
50781;SDS011;36749;37.428;-121.972;2023-08-01T08:00:26;33.92;;;10.38;;
50781;SDS011;36749;37.428;-121.972;2023-08-01T08:02:52;31.83;;;10.00;;
50781;SDS011;36749;37.428;-121.972;2023-08-01T08:05:19;23.20;;;10.18;;
50781;SDS011;36749;37.428;-121.972;2023-08-01T08:07:45;29.67;;;10.02;;
50781;SDS011;36749;37.428;-121.972;2023-08-01T08:10:11;28.25;;;9.05;;
50781;SDS011;36749;37.428;-121.972;2023-08-01T08:12:37;33.85;;;10.15;;
50781;SDS011;36749;37.428;-121.972;2023-08-01T08:15:04;31.30;;;10.20;;
50781;SDS011;36749;37.428;-121.972;2023-08-01T08:17:30;30.42;;;9.00;;
50781;SDS011;36749;37.428;-121.972;2023-08-01T08:19:56;28.98;;;9.60;;
50781;SDS011;36749;37.428;-121.972;2023-08-01T08:22:22;31.52;;;9.80;;
50781;SDS011;36749;37.428;-121.972;2023-08-01T08:24:49;30.77;;;10.30;;
50781;SDS011;36749;37.428;-121.972;2023-08-01T08:27:15;22.65;;;8.75;;
50781;SDS011;36749;37.428;-121.972;2023-08-01T08:29:41;24.55;;;9.18;;
50781;SDS011;36749;37.428;-121.972;2023-08-01T08:32:07;28.85;;;8.65;;
50781;SDS011;36749;37.428;-121.972;2023-08-01T08:34:34;28.80;;;9.35;;
50781;SDS011;36749;37.428;-121.972;2023-08-01T08:37:00;27.20;;;10.15;;
50781;SDS011;36749;37.428;-121.972;2023-08-01T08:39:26;26.88;;;9.50;;
50781;SDS011;36749;37.428;-121.972;2023-08-01T08:41:52;28.85;;;9.48;;
50781;SDS011;36749;37.428;-121.972;2023-08-01T08:44:19;30.58;;;9.15;;
50781;SDS011;36749;37.428;-121.972;2023-08-01T08:46:55;30.02;;;9.07;;
50781;SDS011;36749;37.428;-121.972;2023-08-01T08:49:24;29.27;;;9.15;;
50781;SDS011;36749;37.428;-121.972;2023-08-01T08:51:52;32.40;;;10.35;;
50781;SDS011;36749;37.428;-121.972;2023-08-01T08:54:18;31.70;;;9.60;;
50781;SDS011;36749;37.428;-121.972;2023-08-01T08:56:44;26.35;;;9.10;;
50781;SDS011;36749;37.428;-121.972;2023-08-01T08:59:11;28.98;;;9.27;;
50781;SDS011;36749;37.428;-121.972;2023-08-01T09:01:38;23.30;;;9.10;;
50781;SDS011;36749;37.428;-121.972;2023-08-01T09:04:05;27.65;;;9.13;;
50781;SDS011;36749;37.428;-121.972;2023-08-01T09:06:32;28.55;;;9.52;;
50781;SDS011;36749;37.428;-121.972;2023-08-01T09:09:18;33.88;;;9.80;;
50781;SDS011;36749;37.428;-121.972;2023-08-01T09:11:51;34.45;;;9.27;;
50781;SDS011;36749;37.428;-121.972;2023-08-01T09:14:18;25.65;;;8.70;;
50781;SDS011;36749;37.428;-121.972;2023-08-01T09:16:45;25.35;;;9.20;;
50781;SDS011;36749;37.428;-121.972;2023-08-01T09:19:18;29.55;;;9.30;;
50781;SDS011;36749;37.428;-121.972;2023-08-01T09:21:45;34.78;;;9.88;;
50781;SDS011;36749;37.428;-121.972;2023-08-01T09:24:12;37.60;;;10.70;;
50781;SDS011;36749;37.428;-121.972;2023-08-01T09:26:39;23.90;;;9.23;;
50781;SDS011;36749;37.428;-121.972;2023-08-01T09:29:06;27.83;;;8.57;;
50781;SDS011;36749;37.428;-121.972;2023-08-01T09:31:33;26.52;;;8.50;;
50781;SDS011;36749;37.428;-121.972;2023-08-01T09:34:04;32.30;;;9.18;;
50781;SDS011;36749;37.428;-121.972;2023-08-01T09:36:33;28.20;;;8.52;;
50781;SDS011;36749;37.428;-121.972;2023-08-01T09:39:00;29.98;;;11.10;;
50781;SDS011;36749;37.428;-121.972;2023-08-01T09:41:28;32.45;;;8.48;;
50781;SDS011;36749;37.428;-121.972;2023-08-01T09:43:55;27.48;;;9.38;;
50781;SDS011;36749;37.428;-121.972;2023-08-01T09:46:21;32.05;;;10.55;;
50781;SDS011;36749;37.428;-121.972;2023-08-01T09:48:48;21.20;;;8.40;;
50781;SDS011;36749;37.428;-121.972;2023-08-01T09:51:15;29.48;;;9.20;;
50781;SDS011;36749;37.428;-121.972;2023-08-01T09:53:53;26.15;;;9.15;;
50781;SDS011;36749;37.428;-121.972;2023-08-01T09:58:52;35.35;;;10.18;;
50781;SDS011;36749;37.428;-121.972;2023-08-01T10:01:21;30.60;;;9.00;;
50781;SDS011;36749;37.428;-121.972;2023-08-01T10:03:51;27.48;;;9.80;;
50781;SDS011;36749;37.428;-121.972;2023-08-01T10:06:21;23.48;;;8.38;;
50781;SDS011;36749;37.428;-121.972;2023-08-01T10:08:49;25.48;;;8.80;;
50781;SDS011;36749;37.428;-121.972;2023-08-01T10:11:18;33.55;;;8.82;;
50781;SDS011;36749;37.428;-121.972;2023-08-01T10:13:45;29.58;;;8.68;;
50781;SDS011;36749;37.428;-121.972;2023-08-01T10:16:12;30.23;;;9.40;;
50781;SDS011;36749;37.428;-121.972;2023-08-01T10:18:40;26.88;;;8.57;;
50781;SDS011;36749;37.428;-121.972;2023-08-01T10:21:07;28.98;;;8.60;;
50781;SDS011;36749;37.428;-121.972;2023-08-01T10:23:36;28.02;;;9.90;;
50781;SDS011;36749;37.428;-121.972;2023-08-01T10:26:04;30.02;;;8.80;;
50781;SDS011;36749;37.428;-121.972;2023-08-01T10:28:41;35.08;;;9.65;;
50781;SDS011;36749;37.428;-121.972;2023-08-01T10:31:15;24.92;;;8.98;;
50781;SDS011;36749;37.428;-121.972;2023-08-01T10:33:43;36.22;;;9.30;;
50781;SDS011;36749;37.428;-121.972;2023-08-01T10:36:17;31.65;;;9.80;;
50781;SDS011;36749;37.428;-121.972;2023-08-01T10:38:45;28.90;;;8.65;;
50781;SDS011;36749;37.428;-121.972;2023-08-01T10:41:26;26.50;;;8.32;;
50781;SDS011;36749;37.428;-121.972;2023-08-01T10:46:57;28.90;;;8.68;;
50781;SDS011;36749;37.428;-121.972;2023-08-01T10:49:40;32.63;;;9.70;;
50781;SDS011;36749;37.428;-121.972;2023-08-01T10:52:18;27.35;;;9.73;;
50781;SDS011;36749;37.428;-121.972;2023-08-01T10:54:44;26.67;;;8.60;;
50781;SDS011;36749;37.428;-121.972;2023-08-01T10:57:17;26.23;;;8.15;;
50781;SDS011;36749;37.428;-121.972;2023-08-01T10:59:44;24.05;;;8.80;;
50781;SDS011;36749;37.428;-121.972;2023-08-01T11:02:10;37.13;;;10.02;;
50781;SDS011;36749;37.428;-121.972;2023-08-01T11:04:36;25.40;;;8.38;;
50781;SDS011;36749;37.428;-121.972;2023-08-01T11:07:03;27.65;;;8.13;;
50781;SDS011;36749;37.428;-121.972;2023-08-01T11:09:30;25.58;;;8.93;;
50781;SDS011;36749;37.428;-121.972;2023-08-01T11:11:57;24.25;;;8.10;;
50781;SDS011;36749;37.428;-121.972;2023-08-01T11:14:28;30.65;;;8.57;;
50781;SDS011;36749;37.428;-121.972;2023-08-01T11:16:55;34.03;;;9.30;;
50781;SDS011;36749;37.428;-121.972;2023-08-01T11:19:23;26.70;;;8.20;;
50781;SDS011;36749;37.428;-121.972;2023-08-01T11:21:50;28.35;;;7.93;;
50781;SDS011;36749;37.428;-121.972;2023-08-01T11:24:17;24.85;;;7.63;;
50781;SDS011;36749;37.428;-121.972;2023-08-01T11:26:44;30.92;;;8.50;;
50781;SDS011;36749;37.428;-121.972;2023-08-01T11:29:12;27.17;;;8.80;;
50781;SDS011;36749;37.428;-121.972;2023-08-01T11:31:40;28.00;;;7.95;;
50781;SDS011;36749;37.428;-121.972;2023-08-01T11:34:07;25.50;;;8.07;;
50781;SDS011;36749;37.428;-121.972;2023-08-01T11:36:35;29.20;;;8.40;;
50781;SDS011;36749;37.428;-121.972;2023-08-01T11:39:02;22.63;;;8.25;;
50781;SDS011;36749;37.428;-121.972;2023-08-01T11:41:28;26.73;;;8.48;;
50781;SDS011;36749;37.428;-121.972;2023-08-01T11:43:55;27.55;;;8.98;;
50781;SDS011;36749;37.428;-121.972;2023-08-01T11:46:22;29.70;;;8.23;;
50781;SDS011;36749;37.428;-121.972;2023-08-01T11:48:55;23.45;;;7.80;;
50781;SDS011;36749;37.428;-121.972;2023-08-01T11:51:22;24.48;;;8.30;;
50781;SDS011;36749;37.428;-121.972;2023-08-01T11:53:57;26.48;;;7.80;;
50781;SDS011;36749;37.428;-121.972;2023-08-01T11:56:27;26.38;;;8.38;;
50781;SDS011;36749;37.428;-121.972;2023-08-01T11:58:54;28.20;;;9.80;;
50781;SDS011;36749;37.428;-121.972;2023-08-01T12:01:20;25.35;;;7.60;;
50781;SDS011;36749;37.428;-121.972;2023-08-01T12:06:17;24.17;;;8.13;;
50781;SDS011;36749;37.428;-121.972;2023-08-01T12:08:45;28.35;;;8.70;;
50781;SDS011;36749;37.428;-121.972;2023-08-01T12:11:22;27.08;;;7.85;;
50781;SDS011;36749;37.428;-121.972;2023-08-01T12:14:07;27.63;;;8.27;;
50781;SDS011;36749;37.428;-121.972;2023-08-01T12:16:46;31.52;;;8.75;;
50781;SDS011;36749;37.428;-121.972;2023-08-01T12:19:19;28.52;;;7.85;;
50781;SDS011;36749;37.428;-121.972;2023-08-01T12:21:46;28.07;;;8.30;;
50781;SDS011;36749;37.428;-121.972;2023-08-01T12:24:13;28.85;;;7.90;;
50781;SDS011;36749;37.428;-121.972;2023-08-01T12:26:39;25.13;;;8.43;;
50781;SDS011;36749;37.428;-121.972;2023-08-01T12:29:05;25.52;;;8.23;;
50781;SDS011;36749;37.428;-121.972;2023-08-01T12:31:32;20.10;;;7.50;;
50781;SDS011;36749;37.428;-121.972;2023-08-01T12:33:59;28.98;;;8.65;;
50781;SDS011;36749;37.428;-121.972;2023-08-01T12:36:26;27.73;;;8.65;;
50781;SDS011;36749;37.428;-121.972;2023-08-01T12:38:52;37.17;;;9.23;;
50781;SDS011;36749;37.428;-121.972;2023-08-01T12:41:19;30.27;;;8.20;;
50781;SDS011;36749;37.428;-121.972;2023-08-01T12:43:45;26.98;;;9.00;;
50781;SDS011;36749;37.428;-121.972;2023-08-01T12:46:11;22.65;;;8.38;;
50781;SDS011;36749;37.428;-121.972;2023-08-01T12:48:37;29.42;;;8.73;;
50781;SDS011;36749;37.428;-121.972;2023-08-01T12:51:03;25.63;;;8.57;;
50781;SDS011;36749;37.428;-121.972;2023-08-01T12:53:29;28.38;;;8.73;;
50781;SDS011;36749;37.428;-121.972;2023-08-01T12:55:56;25.70;;;7.50;;
50781;SDS011;36749;37.428;-121.972;2023-08-01T12:58:22;30.05;;;9.25;;
50781;SDS011;36749;37.428;-121.972;2023-08-01T13:00:48;31.42;;;8.80;;
50781;SDS011;36749;37.428;-121.972;2023-08-01T13:03:14;29.15;;;8.75;;
50781;SDS011;36749;37.428;-121.972;2023-08-01T13:05:41;20.95;;;8.13;;
50781;SDS011;36749;37.428;-121.972;2023-08-01T13:08:08;25.92;;;7.85;;
50781;SDS011;36749;37.428;-121.972;2023-08-01T13:10:36;25.13;;;7.75;;
50781;SDS011;36749;37.428;-121.972;2023-08-01T13:13:04;27.15;;;8.82;;
50781;SDS011;36749;37.428;-121.972;2023-08-01T13:15:30;24.85;;;8.05;;
50781;SDS011;36749;37.428;-121.972;2023-08-01T13:17:56;24.80;;;7.90;;
50781;SDS011;36749;37.428;-121.972;2023-08-01T13:20:22;29.77;;;8.45;;
50781;SDS011;36749;37.428;-121.972;2023-08-01T13:22:49;35.85;;;9.13;;
50781;SDS011;36749;37.428;-121.972;2023-08-01T13:25:17;23.40;;;6.35;;
50781;SDS011;36749;37.428;-121.972;2023-08-01T13:27:43;19.95;;;7.55;;
50781;SDS011;36749;37.428;-121.972;2023-08-01T13:30:10;23.48;;;7.50;;
50781;SDS011;36749;37.428;-121.972;2023-08-01T13:32:39;23.77;;;6.78;;
50781;SDS011;36749;37.428;-121.972;2023-08-01T13:35:06;25.10;;;7.55;;
50781;SDS011;36749;37.428;-121.972;2023-08-01T13:37:32;25.85;;;7.50;;
50781;SDS011;36749;37.428;-121.972;2023-08-01T13:40:00;24.98;;;7.38;;
50781;SDS011;36749;37.428;-121.972;2023-08-01T13:42:29;24.23;;;7.72;;
50781;SDS011;36749;37.428;-121.972;2023-08-01T13:44:55;34.28;;;8.00;;
50781;SDS011;36749;37.428;-121.972;2023-08-01T13:47:22;28.00;;;7.63;;
50781;SDS011;36749;37.428;-121.972;2023-08-01T13:49:48;26.90;;;7.22;;
50781;SDS011;36749;37.428;-121.972;2023-08-01T13:52:14;25.88;;;7.97;;
50781;SDS011;36749;37.428;-121.972;2023-08-01T13:54:40;26.05;;;7.80;;
50781;SDS011;36749;37.428;-121.972;2023-08-01T13:57:07;23.60;;;6.78;;
50781;SDS011;36749;37.428;-121.972;2023-08-01T13:59:33;22.58;;;7.40;;
50781;SDS011;36749;37.428;-121.972;2023-08-01T14:01:59;23.75;;;7.75;;